Wilton, Alabama
Current Conditions -  °F | °C
As of 3:00 PM on Wednesday 17 Dec 2014 (Local Time) from KEET Reporting Station
Broken Clouds Broken Clouds  
Wind Chill: 39°   Ceiling: 1900
Heat Index: 43°   Visibility: 10mi
Dew Point: 37°   Wind: 6mph
Humidity: 80%   Direction: 20°NNE
Pressure: 30.2"   Gusts: NA
Location:  33.08°N, 86.88°W
Report Text: KEET 172100Z AUTO 02005KT 10SM BKN019 06/03 A3020 RMK AO2 T00610028
Loading
Personal Weather Stations






























Interactive Weather Map New forecast layout! Learn more

10-Day Weather Forecast

Advertisements
Track Severe Weather on mobile